Summit, North Carolina
Current Conditions -  °F | °C
As of 8:54 PM on Tuesday 25 Nov 2014 (Local Time) from KGSO Reporting Station
Overcast Overcast  
Wind Chill: 52°   Ceiling: 9500
Heat Index: 52°   Visibility: 10mi
Dew Point: 39°   Wind: 6mph
Humidity: 61%   Direction: 60°ENE
Pressure: 30.07"   Gusts: NA
Location:  36.1157°N, 79.7378°W
Report Text: KGSO 260154Z 06005KT 10SM SCT035 SCT075 OVC095 11/04 A3007 RMK AO2 SLP180 T01110039
Loading
Personal Weather Stations






























Interactive Weather Map New forecast layout! Learn more

10-Day Weather Forecast

Advertisements
Track Severe Weather on mobile